Time;durP1;ratioP1;P1;durP2;ratioP2;P2;SDS_P1;SDS_P2;PMS_P1;PMS_P2;Temp;Humidity;BMP_temperature;BMP_pressure;BME280_temperature;BME280_humidity;BME280_pressure;Samples;Min_cycle;Max_cycle;Signal;HPM_P1;HPM_P2
2021/10/31 00:00:34;;;;;;;12.03;9.83;;;;;;;12.36;78.24;100648.91;5008556;28;20218;-73
2021/10/31 00:02:59;;;;;;;12.00;9.73;;;;;;;12.35;78.38;100648.94;5006094;28;20642;-73
2021/10/31 00:05:25;;;;;;;12.37;9.90;;;;;;;12.35;78.60;100642.06;5008289;28;20243;-73
2021/10/31 00:07:51;;;;;;;13.47;10.03;;;;;;;12.43;78.40;100657.53;5010360;28;20187;-73
2021/10/31 00:10:17;;;;;;;12.90;10.07;;;;;;;12.39;78.97;100655.81;5027202;28;20234;-73
2021/10/31 00:12:42;;;;;;;13.67;9.90;;;;;;;12.43;78.94;100662.69;5010660;28;20678;-73
2021/10/31 00:15:09;;;;;;;12.13;10.40;;;;;;;12.41;79.25;100669.53;5011704;28;20294;-73
2021/10/31 00:17:35;;;;;;;12.80;10.87;;;;;;;12.41;79.43;100659.25;5011767;28;20649;-74
2021/10/31 00:20:00;;;;;;;13.67;10.20;;;;;;;12.40;79.27;100670.38;5011858;28;20191;-73
2021/10/31 00:22:25;;;;;;;12.83;10.47;;;;;;;12.42;79.51;100669.53;5011798;28;20661;-74
2021/10/31 00:24:50;;;;;;;14.00;11.20;;;;;;;12.46;79.54;100667.84;5011708;28;20967;-73
2021/10/31 00:27:16;;;;;;;13.33;10.47;;;;;;;12.47;79.02;100674.69;5011308;28;20571;-74
2021/10/31 00:29:41;;;;;;;14.20;10.63;;;;;;;12.48;79.22;100681.56;5021319;28;20201;-73
2021/10/31 00:32:07;;;;;;;11.77;9.60;;;;;;;12.46;79.52;100671.28;5011281;28;20246;-73
2021/10/31 00:34:32;;;;;;;13.23;9.30;;;;;;;12.46;79.41;100683.25;5011390;28;20297;-74
2021/10/31 00:36:58;;;;;;;12.97;10.07;;;;;;;12.47;79.83;100685.84;5011135;28;20187;-74
2021/10/31 00:39:24;;;;;;;14.23;10.83;;;;;;;12.44;79.50;100688.38;5026585;28;20183;-73
2021/10/31 00:41:49;;;;;;;13.17;10.70;;;;;;;12.46;79.67;100684.13;5010002;28;20935;-74
2021/10/31 00:44:14;;;;;;;14.47;10.40;;;;;;;12.46;79.61;100693.53;5011183;28;20203;-74
2021/10/31 00:46:40;;;;;;;11.03;9.80;;;;;;;12.44;80.28;100695.25;5009597;28;20302;-74
2021/10/31 00:49:05;;;;;;;14.60;10.90;;;;;;;12.46;79.91;100693.53;5011275;28;20282;-74
2021/10/31 00:51:31;;;;;;;12.90;10.17;;;;;;;12.46;80.40;100693.53;5011224;28;20206;-74
2021/10/31 00:53:58;;;;;;;16.50;11.17;;;;;;;12.42;80.95;100695.22;5011284;28;20266;-74
2021/10/31 00:56:25;;;;;;;15.67;11.97;;;;;;;12.41;81.21;100697.75;5009512;28;20200;-72
2021/10/31 00:58:51;;;;;;;14.57;11.27;;;;;;;12.41;81.06;100706.34;5011124;28;20278;-72
2021/10/31 01:01:16;;;;;;;12.90;10.37;;;;;;;12.41;81.41;100711.47;5009770;28;20195;-74
2021/10/31 01:03:42;;;;;;;13.30;10.80;;;;;;;12.43;80.97;100703.75;5011288;28;20195;-74
2021/10/31 01:06:35;;;;;;;14.83;11.57;;;;;;;12.40;80.95;100701.19;5011476;28;20231;-74
2021/10/31 01:09:13;;;;;;;14.03;11.30;;;;;;;12.39;81.12;100687.47;5011629;28;20223;-74
2021/10/31 01:12:01;;;;;;;13.57;10.50;;;;;;;12.40;81.31;100696.06;5023434;28;20190;-74
2021/10/31 01:14:55;;;;;;;13.57;10.93;;;;;;;12.37;81.50;100698.59;5032546;28;20286;-74
2021/10/31 01:17:57;;;;;;;15.53;11.23;;;;;;;12.35;81.70;100697.72;5013575;28;20671;-73
2021/10/31 01:20:37;;;;;;;13.70;10.63;;;;;;;12.33;81.40;100705.41;5010242;28;20779;-74
2021/10/31 01:23:40;;;;;;;14.87;10.47;;;;;;;12.35;81.41;100713.97;5010532;28;20195;-74
2021/10/31 01:26:23;;;;;;;14.20;10.90;;;;;;;12.35;81.53;100713.97;4967512;28;20387;-74
2021/10/31 01:29:25;;;;;;;11.87;10.00;;;;;;;12.34;81.73;100711.38;5009209;28;20202;-74
2021/10/31 01:32:17;;;;;;;12.90;10.03;;;;;;;12.37;81.34;100725.13;5005723;28;20594;-74
2021/10/31 01:35:02;;;;;;;14.73;11.20;;;;;;;12.39;81.25;100720.84;5006346;28;20714;-74
2021/10/31 01:37:46;;;;;;;13.37;10.30;;;;;;;12.39;81.42;100720.00;5010018;28;20179;-74
2021/10/31 01:40:17;;;;;;;12.10;10.27;;;;;;;12.39;81.78;100736.28;5007740;28;20302;-74
2021/10/31 01:42:59;;;;;;;11.27;9.93;;;;;;;12.38;81.79;100729.41;5008065;28;20718;-74
2021/10/31 01:45:42;;;;;;;15.67;10.27;;;;;;;12.40;81.57;100729.44;5008097;28;20273;-73
2021/10/31 01:48:20;;;;;;;14.03;11.17;;;;;;;12.38;81.61;100729.41;5008718;28;20187;-73
2021/10/31 01:50:48;;;;;;;14.50;10.97;;;;;;;12.38;81.57;100728.53;5007941;28;20233;-73
2021/10/31 01:53:47;;;;;;;14.10;11.50;;;;;;;12.38;81.75;100726.84;5010104;28;20211;-74
2021/10/31 01:56:21;;;;;;;12.80;10.50;;;;;;;12.38;82.06;100713.13;5009557;28;20677;-73
2021/10/31 01:58:53;;;;;;;13.97;10.60;;;;;;;12.38;82.25;100708.00;5010055;28;20187;-73
2021/10/31 02:01:19;;;;;;;13.77;10.93;;;;;;;12.38;82.02;100710.56;5009948;28;20767;-73
2021/10/31 02:03:48;;;;;;;14.70;11.87;;;;;;;12.38;82.07;100708.88;5009581;28;20595;-73
2021/10/31 02:06:14;;;;;;;14.87;12.03;;;;;;;12.40;82.30;100716.59;5009420;28;20215;-73
2021/10/31 02:08:44;;;;;;;16.37;12.70;;;;;;;12.38;82.47;100731.09;5009836;28;20191;-73
2021/10/31 02:11:11;;;;;;;15.90;13.40;;;;;;;12.36;83.07;100743.09;5008369;28;20203;-74
2021/10/31 02:13:40;;;;;;;17.43;13.43;;;;;;;12.37;82.28;100745.69;5009641;28;20195;-73
2021/10/31 02:16:06;;;;;;;17.47;13.67;;;;;;;12.35;82.86;100737.06;5007235;28;20684;-73
2021/10/31 02:18:33;;;;;;;17.60;14.80;;;;;;;12.35;82.63;100741.38;5008451;28;20192;-73
2021/10/31 02:21:00;;;;;;;17.63;13.93;;;;;;;12.33;82.88;100738.78;5008841;28;20596;-74
2021/10/31 02:23:26;;;;;;;17.27;13.47;;;;;;;12.36;82.59;100743.94;5008610;28;20214;-73
2021/10/31 02:25:52;;;;;;;17.70;14.57;;;;;;;12.32;82.84;100739.63;5007984;28;21020;-73
2021/10/31 02:28:17;;;;;;;17.83;14.37;;;;;;;12.30;83.18;100738.75;5009347;28;20203;-73
2021/10/31 02:30:43;;;;;;;17.03;14.90;;;;;;;12.28;83.56;100744.69;5008291;28;20310;-73
2021/10/31 02:33:09;;;;;;;20.77;15.50;;;;;;;12.29;83.48;100746.41;5024559;28;20183;-73
2021/10/31 02:35:35;;;;;;;17.97;14.67;;;;;;;12.25;83.66;100748.09;5009077;28;20591;-73
2021/10/31 02:38:00;;;;;;;17.20;14.13;;;;;;;12.24;83.71;100745.50;5007757;28;20766;-73
2021/10/31 02:40:26;;;;;;;18.97;15.03;;;;;;;12.24;84.28;100750.66;5009277;28;20199;-73
2021/10/31 02:42:51;;;;;;;17.60;14.93;;;;;;;12.22;83.87;100752.34;5007784;28;20179;-73
2021/10/31 02:45:18;;;;;;;18.83;14.77;;;;;;;12.21;84.02;100761.75;5013150;28;20302;-73
2021/10/31 02:47:57;;;;;;;18.50;15.07;;;;;;;12.17;83.77;100765.13;5008711;28;20191;-73
2021/10/31 02:50:32;;;;;;;18.10;14.37;;;;;;;12.16;84.38;100760.84;5007796;28;20763;-73
2021/10/31 02:53:11;;;;;;;18.30;14.80;;;;;;;12.15;83.85;100755.66;5009090;28;20206;-73
2021/10/31 02:55:40;;;;;;;16.87;14.20;;;;;;;12.14;84.09;100766.78;5008288;28;20233;-73
2021/10/31 02:58:19;;;;;;;19.30;14.70;;;;;;;12.08;84.20;100765.00;5008987;28;20285;-73
2021/10/31 03:00:46;;;;;;;19.80;15.53;;;;;;;12.03;84.81;100764.09;5007901;28;20183;-73
2021/10/31 03:03:13;;;;;;;19.00;15.50;;;;;;;12.01;84.63;100773.50;5007535;28;20229;-73
2021/10/31 03:05:38;;;;;;;16.77;14.40;;;;;;;11.96;84.54;100772.56;5008330;28;20710;-73
2021/10/31 03:08:05;;;;;;;19.13;16.13;;;;;;;11.90;84.80;100776.75;5008685;28;20183;-74
2021/10/31 03:10:31;;;;;;;18.50;15.47;;;;;;;11.91;84.97;100770.78;5009015;28;20187;-73
2021/10/31 03:12:56;;;;;;;18.20;15.27;;;;;;;11.84;84.51;100777.53;5010782;28;20183;-73
2021/10/31 03:15:22;;;;;;;20.00;14.57;;;;;;;11.81;84.88;100780.09;5018532;28;20787;-73
2021/10/31 03:17:48;;;;;;;18.13;14.93;;;;;;;11.77;84.72;100769.75;5007296;28;20204;-73
2021/10/31 03:20:13;;;;;;;18.60;14.90;;;;;;;11.71;85.19;100780.78;5008759;28;20203;-73
2021/10/31 03:22:40;;;;;;;20.47;16.10;;;;;;;11.68;85.42;100785.88;5008587;28;20762;-73
2021/10/31 03:25:06;;;;;;;19.30;15.77;;;;;;;11.70;85.03;100791.03;5003349;28;20692;-74
2021/10/31 03:27:31;;;;;;;22.30;16.27;;;;;;;11.66;85.22;100794.41;5008135;28;20198;-73
2021/10/31 03:29:57;;;;;;;17.97;15.80;;;;;;;11.60;85.40;100795.16;5009712;28;20187;-73
2021/10/31 03:32:22;;;;;;;22.37;16.60;;;;;;;11.63;84.86;100807.16;5007717;28;21017;-73
2021/10/31 03:34:48;;;;;;;19.40;15.43;;;;;;;11.58;85.57;100799.38;5008593;28;20225;-73
2021/10/31 03:37:14;;;;;;;19.70;16.33;;;;;;;11.60;85.04;100800.28;5006562;28;20192;-73
2021/10/31 03:39:39;;;;;;;20.63;16.30;;;;;;;11.60;85.34;100799.41;5009129;28;20249;-73
2021/10/31 03:42:05;;;;;;;20.13;16.07;;;;;;;11.57;85.03;100807.06;5010256;28;20278;-74
2021/10/31 03:44:35;;;;;;;19.83;15.80;;;;;;;11.47;85.66;100812.91;5026124;28;20211;-73
2021/10/31 03:47:01;;;;;;;18.57;15.77;;;;;;;11.49;85.46;100817.19;5012061;28;20731;-73
2021/10/31 03:49:26;;;;;;;19.07;15.20;;;;;;;11.51;85.52;100824.91;5012182;28;20196;-73
2021/10/31 03:51:52;;;;;;;16.53;14.70;;;;;;;11.46;85.02;100824.84;5012550;28;20191;-73
2021/10/31 03:54:17;;;;;;;17.23;14.50;;;;;;;11.43;85.30;100831.63;5011034;28;20226;-73
2021/10/31 03:56:42;;;;;;;19.20;15.27;;;;;;;11.42;85.67;100842.69;5011601;28;20273;-73
2021/10/31 03:59:07;;;;;;;17.63;14.67;;;;;;;11.45;85.59;100837.63;5012787;28;20282;-73
2021/10/31 04:01:33;;;;;;;17.20;14.97;;;;;;;11.40;86.14;100845.25;5012938;28;20281;-73
2021/10/31 04:03:59;;;;;;;18.40;15.53;;;;;;;11.36;86.00;100846.06;5012145;28;20230;-73
2021/10/31 04:06:25;;;;;;;18.23;15.20;;;;;;;11.35;85.70;100849.47;5011469;28;20919;-73
2021/10/31 04:08:50;;;;;;;17.57;14.63;;;;;;;11.33;85.66;100845.16;5012078;28;20285;-74
2021/10/31 04:11:16;;;;;;;17.57;14.73;;;;;;;11.21;85.62;100850.06;5010709;28;20660;-73
2021/10/31 04:13:41;;;;;;;18.30;14.67;;;;;;;11.18;85.07;100852.56;5012023;28;20180;-73
2021/10/31 04:16:06;;;;;;;18.43;14.77;;;;;;;11.13;85.55;100860.19;5012306;28;20203;-73
2021/10/31 04:18:32;;;;;;;16.80;14.33;;;;;;;11.16;85.31;100864.50;5011645;28;20211;-73
2021/10/31 04:20:57;;;;;;;17.63;13.93;;;;;;;11.00;85.59;100857.38;5011737;28;20222;-73
2021/10/31 04:23:24;;;;;;;15.30;13.10;;;;;;;10.97;85.46;100857.34;5011275;28;20195;-73
2021/10/31 04:25:49;;;;;;;20.67;14.70;;;;;;;10.92;85.58;100864.91;5011964;28;20724;-73
2021/10/31 04:28:14;;;;;;;19.00;15.40;;;;;;;10.86;85.52;100863.94;5010565;28;20215;-73
2021/10/31 04:30:40;;;;;;;17.83;14.80;;;;;;;10.86;85.19;100848.56;5011652;28;20214;-73
2021/10/31 04:33:06;;;;;;;17.90;14.77;;;;;;;10.76;85.75;100855.25;5010858;28;20218;-73
2021/10/31 04:35:31;;;;;;;20.63;15.13;;;;;;;10.64;85.59;100860.13;5011444;28;20206;-74
2021/10/31 04:38:04;;;;;;;16.70;13.77;;;;;;;10.64;85.26;100856.72;5010398;28;20568;-73
2021/10/31 04:40:34;;;;;;;18.67;14.30;;;;;;;10.55;84.83;100849.69;5011148;28;20191;-73
2021/10/31 04:42:59;;;;;;;19.33;13.83;;;;;;;10.50;84.86;100858.16;5011051;28;20194;-74
2021/10/31 04:45:24;;;;;;;19.03;13.53;;;;;;;10.41;85.64;100865.63;5010892;28;20211;-74
2021/10/31 04:47:50;;;;;;;18.27;13.37;;;;;;;10.32;85.14;100861.16;5012084;28;20195;-74
2021/10/31 04:50:15;;;;;;;19.43;14.13;;;;;;;10.32;85.35;100857.78;5011254;28;20253;-73
2021/10/31 04:52:43;;;;;;;19.17;13.90;;;;;;;10.25;84.40;100861.03;5012032;28;20769;-74
2021/10/31 04:55:09;;;;;;;18.77;13.90;;;;;;;10.25;84.60;100859.34;5008201;28;20250;-73
2021/10/31 04:57:34;;;;;;;15.90;13.13;;;;;;;10.13;84.50;100866.75;5011784;28;20183;-74
2021/10/31 05:00:00;;;;;;;16.63;13.23;;;;;;;10.13;84.71;100866.75;5011218;28;20249;-74
2021/10/31 05:02:26;;;;;;;18.43;13.67;;;;;;;10.02;84.62;100862.19;5010757;28;20523;-74
2021/10/31 05:04:51;;;;;;;16.27;13.37;;;;;;;9.90;84.86;100864.50;5009755;28;20715;-74
2021/10/31 05:07:16;;;;;;;19.03;13.70;;;;;;;9.87;84.27;100870.38;5011231;28;20222;-74
2021/10/31 05:09:42;;;;;;;18.67;12.97;;;;;;;9.79;84.32;100868.50;5011140;28;20198;-74
2021/10/31 05:12:07;;;;;;;15.60;12.77;;;;;;;9.74;83.94;100873.53;5011658;28;20187;-74
2021/10/31 05:14:33;;;;;;;16.13;12.87;;;;;;;9.73;84.12;100878.59;5010775;28;20298;-74
2021/10/31 05:17:00;;;;;;;18.57;13.97;;;;;;;9.57;84.35;100881.59;5010547;28;20671;-74
2021/10/31 05:19:25;;;;;;;19.43;14.67;;;;;;;9.64;84.16;100878.38;5010402;28;20203;-74
2021/10/31 05:21:50;;;;;;;19.87;15.23;;;;;;;9.53;84.67;100882.34;5026612;28;20202;-74
2021/10/31 05:24:16;;;;;;;16.57;13.50;;;;;;;9.57;84.54;100896.94;5009677;28;20242;-74
2021/10/31 05:26:41;;;;;;;19.37;13.20;;;;;;;9.53;84.55;100898.56;5006916;28;20253;-74
2021/10/31 05:29:06;;;;;;;18.60;12.93;;;;;;;9.58;84.85;100891.88;5003781;28;20245;-74
2021/10/31 05:31:32;;;;;;;17.73;14.30;;;;;;;9.63;85.05;100892.84;5009382;28;20304;-74
2021/10/31 05:33:57;;;;;;;19.17;14.03;;;;;;;9.56;85.83;100897.78;5009695;28;20286;-74
2021/10/31 05:36:23;;;;;;;22.03;15.90;;;;;;;9.71;87.11;100895.56;5010216;28;20274;-72
2021/10/31 05:38:48;;;;;;;20.67;15.93;;;;;;;9.70;87.62;100891.28;5010223;28;20187;-74
2021/10/31 05:41:14;;;;;;;19.00;14.87;;;;;;;9.73;87.46;100889.66;5010442;28;20191;-73
2021/10/31 05:43:39;;;;;;;24.37;16.87;;;;;;;9.70;88.72;100893.84;5009590;28;20246;-74
2021/10/31 05:46:05;;;;;;;21.83;15.30;;;;;;;9.79;88.77;100886.41;5007755;28;20215;-74
2021/10/31 05:48:30;;;;;;;20.50;14.70;;;;;;;9.72;88.84;100882.81;5010764;28;20198;-74
2021/10/31 05:50:56;;;;;;;17.63;13.80;;;;;;;9.77;88.65;100886.34;5010945;28;20194;-74
2021/10/31 05:53:22;;;;;;;18.87;14.50;;;;;;;9.73;88.97;100881.16;5011001;28;20191;-74
2021/10/31 05:55:48;;;;;;;18.47;14.23;;;;;;;9.69;87.97;100885.34;5009811;28;20226;-73
2021/10/31 05:58:13;;;;;;;16.10;12.70;;;;;;;9.67;87.50;100886.13;5024938;28;20191;-74
2021/10/31 06:00:38;;;;;;;17.67;13.03;;;;;;;9.63;87.13;100892.84;5003807;28;20214;-73
2021/10/31 06:03:04;;;;;;;15.43;12.17;;;;;;;9.60;86.98;100886.78;5010987;28;20202;-74
2021/10/31 06:05:30;;;;;;;15.57;12.53;;;;;;;9.59;87.49;100903.81;5007565;28;20237;-74
2021/10/31 06:07:55;;;;;;;18.40;13.33;;;;;;;9.57;87.30;100896.94;5010609;28;20685;-73
2021/10/31 06:10:20;;;;;;;17.70;13.10;;;;;;;9.49;86.31;100901.03;5010657;28;20226;-73
2021/10/31 06:12:48;;;;;;;15.07;12.63;;;;;;;9.52;86.95;100895.97;5010619;28;20180;-73
2021/10/31 06:15:15;;;;;;;18.63;13.50;;;;;;;9.48;86.41;100900.16;5008437;28;20218;-74
2021/10/31 06:17:40;;;;;;;16.50;13.20;;;;;;;9.49;86.82;100896.75;5002688;28;20183;-73
2021/10/31 06:20:11;;;;;;;17.63;13.27;;;;;;;9.44;86.58;100902.59;5008555;28;20207;-73
2021/10/31 06:22:37;;;;;;;17.40;13.77;;;;;;;9.40;86.28;100911.84;5009522;28;20641;-74
2021/10/31 06:25:03;;;;;;;16.53;13.50;;;;;;;9.35;86.08;100908.31;5007542;28;20288;-73
2021/10/31 06:27:29;;;;;;;15.83;12.73;;;;;;;9.30;86.25;100909.91;5010014;28;20755;-73
2021/10/31 06:29:54;;;;;;;16.83;12.07;;;;;;;9.25;85.62;100911.47;5017265;28;20191;-73
2021/10/31 06:32:19;;;;;;;14.90;12.63;;;;;;;9.34;85.85;100908.28;5030156;28;20229;-73
2021/10/31 06:34:45;;;;;;;16.73;12.83;;;;;;;9.32;85.57;100908.28;5028932;28;20544;-73
2021/10/31 06:37:10;;;;;;;16.13;12.37;;;;;;;9.33;85.70;100917.66;5029666;28;20191;-73
2021/10/31 06:39:36;;;;;;;17.77;12.93;;;;;;;9.28;85.75;100916.69;5030190;28;20252;-73
2021/10/31 06:42:01;;;;;;;17.47;12.20;;;;;;;9.34;85.41;100918.50;5026334;28;20179;-74
2021/10/31 06:44:27;;;;;;;18.13;12.97;;;;;;;9.33;85.72;100912.56;5028874;28;20699;-74
2021/10/31 06:46:52;;;;;;;18.03;12.57;;;;;;;9.34;84.75;100911.72;5009252;28;20677;-74
2021/10/31 06:49:18;;;;;;;16.03;11.97;;;;;;;9.26;85.64;100915.75;5010363;28;20203;-74
2021/10/31 06:51:43;;;;;;;17.03;13.07;;;;;;;9.32;86.55;100921.06;5013846;28;20183;-74
2021/10/31 06:54:09;;;;;;;18.40;13.10;;;;;;;9.38;85.98;100923.75;5029687;28;20719;-74
2021/10/31 06:56:35;;;;;;;15.30;12.60;;;;;;;9.32;86.20;100920.19;5029127;28;20209;-74
2021/10/31 06:59:01;;;;;;;15.43;12.57;;;;;;;9.34;85.70;100915.94;5028223;28;20198;-74
2021/10/31 07:01:27;;;;;;;16.00;12.97;;;;;;;9.33;85.87;100917.66;5027468;28;20548;-74
2021/10/31 07:03:52;;;;;;;14.53;12.00;;;;;;;9.41;86.39;100915.28;5009762;28;20206;-74
2021/10/31 07:06:18;;;;;;;14.60;11.63;;;;;;;9.44;85.44;100920.50;5008386;28;20710;-73
2021/10/31 07:08:44;;;;;;;17.30;12.97;;;;;;;9.50;86.17;100926.59;5009889;28;20286;-73
2021/10/31 07:11:10;;;;;;;16.27;13.30;;;;;;;9.58;86.13;100927.66;5024860;28;20684;-73
2021/10/31 07:13:35;;;;;;;18.00;15.37;;;;;;;9.72;86.23;100928.84;5029759;28;20199;-73
2021/10/31 07:16:00;;;;;;;24.40;18.53;;;;;;;9.71;87.55;100934.81;5029391;28;20214;-73
2021/10/31 07:18:26;;;;;;;22.87;19.60;;;;;;;9.81;87.62;100935.91;5025095;28;20532;-73
2021/10/31 07:20:51;;;;;;;22.80;18.83;;;;;;;9.85;87.54;100942.78;5013666;28;20191;-73
2021/10/31 07:23:17;;;;;;;19.60;16.77;;;;;;;9.87;86.42;100936.03;5013765;28;20191;-73
2021/10/31 07:25:42;;;;;;;16.43;14.73;;;;;;;9.89;86.19;100949.69;5011979;28;20357;-73
2021/10/31 07:28:08;;;;;;;18.90;15.20;;;;;;;9.95;86.35;100945.59;5013601;28;20282;-73
2021/10/31 07:30:33;;;;;;;19.77;14.27;;;;;;;9.98;86.09;100953.34;5013625;28;20199;-74
2021/10/31 07:33:00;;;;;;;17.37;13.67;;;;;;;10.02;86.08;100942.38;5012395;28;20179;-74
2021/10/31 07:35:28;;;;;;;18.17;13.73;;;;;;;10.15;86.01;100949.53;5013436;28;20214;-74
2021/10/31 07:37:53;;;;;;;18.20;14.57;;;;;;;10.29;86.46;100943.03;4994267;28;20183;-74
2021/10/31 07:40:19;;;;;;;17.63;13.90;;;;;;;10.38;86.61;100944.91;4992395;28;20192;-74
2021/10/31 07:42:45;;;;;;;18.67;15.70;;;;;;;10.41;86.55;100939.88;4993822;28;20202;-73
2021/10/31 07:45:12;;;;;;;19.70;15.63;;;;;;;10.43;86.56;100946.75;4993570;28;20199;-74
2021/10/31 07:47:37;;;;;;;19.67;16.63;;;;;;;10.45;86.59;100939.06;5022486;28;20579;-73
2021/10/31 07:50:04;;;;;;;24.57;20.80;;;;;;;10.24;86.89;100942.06;5032958;28;20187;-74
2021/10/31 07:52:30;;;;;;;21.83;16.40;;;;;;;10.27;86.81;100942.09;5031768;28;20269;-74
2021/10/31 07:54:56;;;;;;;20.00;15.30;;;;;;;10.32;86.84;100927.72;5012962;28;20618;-73
2021/10/31 07:57:24;;;;;;;19.63;14.47;;;;;;;10.49;86.39;100931.50;5013130;28;20182;-74
2021/10/31 07:59:50;;;;;;;16.67;14.23;;;;;;;10.60;85.95;100939.41;5013081;28;20734;-74
2021/10/31 08:02:18;;;;;;;19.97;14.87;;;;;;;10.64;85.77;100938.66;5013094;28;20211;-74
2021/10/31 08:04:44;;;;;;;18.13;14.30;;;;;;;10.69;85.64;100937.88;5013115;28;20215;-74
2021/10/31 08:07:09;;;;;;;17.10;14.83;;;;;;;10.65;85.46;100943.78;5013218;28;20211;-74
2021/10/31 08:09:34;;;;;;;17.80;13.10;;;;;;;10.70;85.54;100942.19;5012737;28;20202;-74
2021/10/31 08:12:00;;;;;;;16.83;12.73;;;;;;;10.82;85.29;100934.75;5011649;28;20262;-74
2021/10/31 08:14:25;;;;;;;16.10;12.73;;;;;;;11.14;84.34;100935.34;5011488;28;20695;-74
2021/10/31 08:16:50;;;;;;;14.60;12.97;;;;;;;11.47;83.00;100934.25;5011324;28;20206;-74
2021/10/31 08:19:23;;;;;;;16.30;13.87;;;;;;;11.64;82.49;100942.25;5011226;28;20195;-74
2021/10/31 08:21:49;;;;;;;27.37;18.70;;;;;;;11.87;82.65;100939.22;5011459;28;20192;-74
2021/10/31 08:24:14;;;;;;;25.40;18.30;;;;;;;12.10;82.18;100931.88;5012900;28;20211;-74
2021/10/31 08:26:39;;;;;;;21.37;15.63;;;;;;;12.25;80.91;100926.94;5012516;28;20223;-74
2021/10/31 08:29:05;;;;;;;23.37;15.20;;;;;;;12.35;80.39;100944.22;5012663;28;20225;-73
2021/10/31 08:31:32;;;;;;;21.40;15.43;;;;;;;12.28;81.86;100930.44;5011132;28;20195;-74
2021/10/31 08:34:00;;;;;;;17.97;13.63;;;;;;;12.44;82.00;100936.66;5013025;28;20976;-74
2021/10/31 08:36:29;;;;;;;17.70;13.60;;;;;;;12.65;81.27;100942.91;5010900;28;20196;-74
2021/10/31 08:38:55;;;;;;;12.87;11.47;;;;;;;13.78;78.17;100920.97;5012389;28;20187;-74
2021/10/31 08:41:23;;;;;;;13.80;11.83;;;;;;;14.35;75.13;100917.91;5012295;28;20194;-73
2021/10/31 08:43:50;;;;;;;12.00;10.50;;;;;;;14.58;74.24;100900.84;5012046;28;20636;-75
2021/10/31 08:46:17;;;;;;;12.17;10.80;;;;;;;15.70;70.15;100883.00;5011733;28;20555;-74
2021/10/31 08:48:43;;;;;;;11.00;9.90;;;;;;;16.78;66.44;100872.38;5012138;28;20707;-73
2021/10/31 08:51:09;;;;;;;11.93;10.43;;;;;;;16.19;68.64;100876.03;5012061;28;20589;-73
2021/10/31 08:53:36;;;;;;;13.73;11.13;;;;;;;16.56;66.44;100868.19;5012060;28;20262;-73
2021/10/31 08:56:01;;;;;;;11.43;10.20;;;;;;;15.92;68.84;100884.72;5011681;28;20230;-74
2021/10/31 08:58:28;;;;;;;11.20;10.07;;;;;;;18.49;59.48;100867.44;5010373;28;20284;-73
2021/10/31 09:00:53;;;;;;;11.97;9.33;;;;;;;18.70;59.05;100865.44;5009944;28;20195;-73
2021/10/31 09:03:19;;;;;;;12.83;9.50;;;;;;;18.71;58.76;100869.78;5011255;28;20322;-73
2021/10/31 09:05:45;;;;;;;10.77;9.67;;;;;;;18.46;60.06;100870.94;5011483;28;20310;-73
2021/10/31 09:08:10;;;;;;;10.50;9.50;;;;;;;19.14;57.87;100870.00;5011585;28;20190;-74
2021/10/31 09:10:37;;;;;;;9.73;8.73;;;;;;;19.12;57.72;100864.00;5010460;28;20191;-73
2021/10/31 09:13:02;;;;;;;11.40;9.50;;;;;;;18.95;58.39;100860.78;5011535;28;20183;-73
2021/10/31 09:15:29;;;;;;;10.00;9.03;;;;;;;17.95;61.30;100865.44;5011079;28;20571;-73
2021/10/31 09:17:59;;;;;;;10.87;9.77;;;;;;;18.13;61.62;100860.06;5011406;28;20202;-73
2021/10/31 09:20:26;;;;;;;10.73;9.63;;;;;;;20.26;55.98;100849.06;5011301;28;20207;-73
2021/10/31 09:22:55;;;;;;;10.63;9.60;;;;;;;21.01;52.75;100839.63;5011402;28;20183;-73
2021/10/31 09:25:21;;;;;;;10.73;9.70;;;;;;;22.24;49.18;100833.78;5011438;28;20680;-73
2021/10/31 09:27:47;;;;;;;10.83;9.73;;;;;;;21.90;49.40;100827.81;4995851;28;20180;-73
2021/10/31 09:30:13;;;;;;;10.60;9.60;;;;;;;20.89;51.94;100832.03;5021000;28;20203;-73
2021/10/31 09:32:45;;;;;;;10.57;9.67;;;;;;;20.54;52.90;100832.81;5002917;28;20237;-74
2021/10/31 09:35:11;;;;;;;11.23;10.23;;;;;;;19.74;55.17;100838.72;4995660;28;20220;-75
2021/10/31 09:37:37;;;;;;;10.97;9.90;;;;;;;18.60;58.55;100834.47;5003896;28;20197;-75
2021/10/31 09:40:04;;;;;;;12.67;11.40;;;;;;;17.58;62.02;100838.16;5009235;28;20577;-73
2021/10/31 09:42:32;;;;;;;12.47;11.23;;;;;;;17.01;64.22;100838.59;5011064;28;20183;-74
2021/10/31 09:44:58;;;;;;;13.67;11.33;;;;;;;17.03;65.14;100845.50;5010800;28;20319;-74
2021/10/31 09:47:24;;;;;;;12.83;11.53;;;;;;;18.26;61.04;100839.19;5010480;28;20732;-74
2021/10/31 09:49:50;;;;;;;12.03;10.73;;;;;;;19.37;57.56;100839.38;5009411;28;20560;-74
2021/10/31 09:52:15;;;;;;;12.40;10.30;;;;;;;19.09;57.79;100832.88;5010658;28;20203;-74
2021/10/31 09:54:41;;;;;;;11.10;10.10;;;;;;;19.06;57.83;100832.91;5010527;28;20206;-74
2021/10/31 09:57:06;;;;;;;11.17;10.07;;;;;;;19.14;58.08;100825.88;5009129;28;20824;-74
2021/10/31 09:59:38;;;;;;;13.00;10.70;;;;;;;18.48;59.76;100821.66;5010596;28;20626;-74
2021/10/31 10:04:32;;;;;;;15.30;11.90;;;;;;;17.78;61.84;100820.72;5009228;28;20841;-74
2021/10/31 10:07:04;;;;;;;12.90;11.60;;;;;;;17.58;62.86;100814.88;5010317;28;20727;-74
2021/10/31 10:09:31;;;;;;;12.37;11.10;;;;;;;18.38;60.89;100807.09;5010225;28;20203;-73
2021/10/31 10:11:58;;;;;;;11.63;10.43;;;;;;;18.57;59.18;100809.41;5010267;28;20206;-73
2021/10/31 10:14:28;;;;;;;10.87;9.50;;;;;;;18.89;58.96;100804.63;5009535;28;20262;-74
2021/10/31 10:17:01;;;;;;;12.23;10.90;;;;;;;19.18;57.82;100804.16;5002221;28;20527;-74
2021/10/31 10:19:30;;;;;;;11.57;10.37;;;;;;;19.87;56.11;100814.22;5001825;28;20224;-74
2021/10/31 10:22:09;;;;;;;12.97;9.73;;;;;;;19.12;57.29;100825.88;5010209;28;20191;-74
2021/10/31 10:24:40;;;;;;;10.80;9.80;;;;;;;18.72;59.39;100826.50;5010158;28;20305;-73
2021/10/31 10:27:08;;;;;;;11.50;10.30;;;;;;;19.80;56.48;100829.97;5009890;28;20844;-74
2021/10/31 10:29:36;;;;;;;11.40;10.27;;;;;;;18.48;59.77;100832.91;4996476;28;20238;-73
2021/10/31 10:32:05;;;;;;;11.20;10.10;;;;;;;18.32;60.35;100823.53;5008836;28;20198;-73
2021/10/31 10:34:38;;;;;;;14.23;10.67;;;;;;;18.08;61.51;100813.47;5009978;28;20899;-73
2021/10/31 10:37:10;;;;;;;11.93;10.67;;;;;;;18.45;60.22;100816.50;5008560;28;20192;-73
2021/10/31 10:39:37;;;;;;;10.97;9.83;;;;;;;19.90;56.71;100813.31;5008457;28;20191;-73
2021/10/31 10:42:03;;;;;;;11.53;10.13;;;;;;;19.93;55.29;100800.25;5009963;28;20192;-73
2021/10/31 10:44:30;;;;;;;9.95;8.98;;;;;;;19.92;55.90;100807.19;5009675;28;20207;-74
2021/10/31 10:46:59;;;;;;;10.27;9.27;;;;;;;20.03;55.78;100799.19;5009873;28;20215;-73
2021/10/31 10:49:26;;;;;;;11.47;10.30;;;;;;;20.61;54.17;100804.91;5010069;28;20197;-73
2021/10/31 10:52:03;;;;;;;9.52;8.63;;;;;;;22.93;48.67;100794.34;5008943;28;20207;-73
2021/10/31 10:54:28;;;;;;;10.13;9.10;;;;;;;23.49;46.18;100789.00;5009850;28;20215;-73
2021/10/31 10:57:00;;;;;;;10.07;9.07;;;;;;;21.18;52.09;100781.00;5008149;28;20205;-73
2021/10/31 10:59:25;;;;;;;10.38;9.27;;;;;;;22.69;47.79;100767.22;5009603;28;20227;-73
2021/10/31 11:02:27;;;;;;;10.02;9.07;;;;;;;24.01;45.02;100756.63;5008223;28;20680;-73
2021/10/31 11:04:58;;;;;;;9.77;8.48;;;;;;;24.38;44.17;100747.34;4948631;29;20745;-73
2021/10/31 11:07:35;;;;;;;10.82;8.70;;;;;;;24.02;44.52;100755.69;4999476;28;20230;-74
2021/10/31 11:10:07;;;;;;;9.05;8.25;;;;;;;24.80;43.45;100737.81;5009581;28;20252;-74
2021/10/31 11:12:35;;;;;;;9.38;8.48;;;;;;;23.92;44.64;100744.72;5009615;28;20229;-74
2021/10/31 11:15:10;;;;;;;9.10;8.05;;;;;;;21.98;49.10;100755.44;5009398;28;20253;-74
2021/10/31 11:17:36;;;;;;;10.00;9.00;;;;;;;21.24;51.19;100754.78;5009138;28;20198;-74